sensor_id;sensor_type;location;lat;lon;timestamp;P1;durP1;ratioP1;P2;durP2;ratioP2
45274;SDS011;31019;43.780;25.948;2024-01-25T00:00:23;260.05;;;237.60;;
45274;SDS011;31019;43.780;25.948;2024-01-25T00:02:51;246.05;;;226.05;;
45274;SDS011;31019;43.780;25.948;2024-01-25T00:05:18;221.73;;;202.50;;
45274;SDS011;31019;43.780;25.948;2024-01-25T00:07:45;218.63;;;199.73;;
45274;SDS011;31019;43.780;25.948;2024-01-25T00:10:12;197.07;;;179.88;;
45274;SDS011;31019;43.780;25.948;2024-01-25T00:12:40;240.20;;;220.68;;
45274;SDS011;31019;43.780;25.948;2024-01-25T00:15:07;200.25;;;183.15;;
45274;SDS011;31019;43.780;25.948;2024-01-25T00:17:34;239.02;;;219.27;;
45274;SDS011;31019;43.780;25.948;2024-01-25T00:20:02;263.95;;;242.85;;
45274;SDS011;31019;43.780;25.948;2024-01-25T00:22:30;205.30;;;187.25;;
45274;SDS011;31019;43.780;25.948;2024-01-25T00:24:57;230.52;;;211.00;;
45274;SDS011;31019;43.780;25.948;2024-01-25T00:27:24;221.38;;;203.25;;
45274;SDS011;31019;43.780;25.948;2024-01-25T00:29:51;219.13;;;201.13;;
45274;SDS011;31019;43.780;25.948;2024-01-25T00:32:18;214.15;;;196.35;;
45274;SDS011;31019;43.780;25.948;2024-01-25T00:34:45;234.82;;;215.88;;
45274;SDS011;31019;43.780;25.948;2024-01-25T00:37:14;225.10;;;206.15;;
45274;SDS011;31019;43.780;25.948;2024-01-25T00:39:41;206.38;;;188.65;;
45274;SDS011;31019;43.780;25.948;2024-01-25T00:42:09;220.02;;;201.75;;
45274;SDS011;31019;43.780;25.948;2024-01-25T00:44:39;246.85;;;226.75;;
45274;SDS011;31019;43.780;25.948;2024-01-25T00:47:07;231.07;;;211.77;;
45274;SDS011;31019;43.780;25.948;2024-01-25T00:49:35;215.63;;;197.10;;
45274;SDS011;31019;43.780;25.948;2024-01-25T00:52:02;238.98;;;219.52;;
45274;SDS011;31019;43.780;25.948;2024-01-25T00:54:31;211.98;;;193.63;;
45274;SDS011;31019;43.780;25.948;2024-01-25T00:56:59;298.48;;;274.60;;
45274;SDS011;31019;43.780;25.948;2024-01-25T00:59:26;247.43;;;227.45;;
45274;SDS011;31019;43.780;25.948;2024-01-25T01:01:54;216.98;;;198.13;;
45274;SDS011;31019;43.780;25.948;2024-01-25T01:04:22;215.35;;;196.15;;
45274;SDS011;31019;43.780;25.948;2024-01-25T01:06:50;228.85;;;209.35;;
45274;SDS011;31019;43.780;25.948;2024-01-25T01:09:17;241.77;;;221.00;;
45274;SDS011;31019;43.780;25.948;2024-01-25T01:11:46;229.68;;;209.23;;
45274;SDS011;31019;43.780;25.948;2024-01-25T01:14:15;231.70;;;211.30;;
45274;SDS011;31019;43.780;25.948;2024-01-25T01:16:42;239.75;;;220.05;;
45274;SDS011;31019;43.780;25.948;2024-01-25T01:19:09;248.10;;;228.10;;
45274;SDS011;31019;43.780;25.948;2024-01-25T01:21:36;233.93;;;214.63;;
45274;SDS011;31019;43.780;25.948;2024-01-25T01:24:04;245.23;;;224.88;;
45274;SDS011;31019;43.780;25.948;2024-01-25T01:26:30;234.52;;;214.73;;
45274;SDS011;31019;43.780;25.948;2024-01-25T01:28:59;230.60;;;210.15;;
45274;SDS011;31019;43.780;25.948;2024-01-25T01:31:26;279.85;;;256.10;;
45274;SDS011;31019;43.780;25.948;2024-01-25T01:33:52;288.20;;;263.02;;
45274;SDS011;31019;43.780;25.948;2024-01-25T01:36:19;273.77;;;248.65;;
45274;SDS011;31019;43.780;25.948;2024-01-25T01:38:47;287.10;;;261.58;;
45274;SDS011;31019;43.780;25.948;2024-01-25T01:41:14;301.55;;;275.35;;
45274;SDS011;31019;43.780;25.948;2024-01-25T01:43:44;291.95;;;268.23;;
45274;SDS011;31019;43.780;25.948;2024-01-25T01:46:15;267.95;;;246.70;;
45274;SDS011;31019;43.780;25.948;2024-01-25T01:48:53;248.98;;;229.98;;
45274;SDS011;31019;43.780;25.948;2024-01-25T01:51:20;195.52;;;181.27;;
45274;SDS011;31019;43.780;25.948;2024-01-25T01:53:47;160.23;;;148.13;;
45274;SDS011;31019;43.780;25.948;2024-01-25T01:56:14;144.43;;;133.82;;
45274;SDS011;31019;43.780;25.948;2024-01-25T01:58:42;118.25;;;109.35;;
45274;SDS011;31019;43.780;25.948;2024-01-25T02:01:13;105.43;;;97.53;;
45274;SDS011;31019;43.780;25.948;2024-01-25T02:03:40;97.95;;;90.68;;
45274;SDS011;31019;43.780;25.948;2024-01-25T02:06:07;92.70;;;85.82;;
45274;SDS011;31019;43.780;25.948;2024-01-25T02:08:34;80.53;;;74.03;;
45274;SDS011;31019;43.780;25.948;2024-01-25T02:11:01;88.05;;;81.47;;
45274;SDS011;31019;43.780;25.948;2024-01-25T02:13:28;79.47;;;73.38;;
45274;SDS011;31019;43.780;25.948;2024-01-25T02:15:55;73.03;;;67.20;;
45274;SDS011;31019;43.780;25.948;2024-01-25T02:18:24;70.50;;;64.90;;
45274;SDS011;31019;43.780;25.948;2024-01-25T02:20:51;77.68;;;71.57;;
45274;SDS011;31019;43.780;25.948;2024-01-25T02:23:19;76.35;;;70.00;;
45274;SDS011;31019;43.780;25.948;2024-01-25T02:25:46;70.95;;;65.25;;
45274;SDS011;31019;43.780;25.948;2024-01-25T02:28:12;84.68;;;78.25;;
45274;SDS011;31019;43.780;25.948;2024-01-25T02:30:39;83.15;;;76.85;;
45274;SDS011;31019;43.780;25.948;2024-01-25T02:33:06;79.72;;;73.85;;
45274;SDS011;31019;43.780;25.948;2024-01-25T02:35:33;87.38;;;80.97;;
45274;SDS011;31019;43.780;25.948;2024-01-25T02:38:00;79.10;;;73.18;;
45274;SDS011;31019;43.780;25.948;2024-01-25T02:40:28;75.82;;;69.93;;
45274;SDS011;31019;43.780;25.948;2024-01-25T02:42:55;76.60;;;70.75;;
45274;SDS011;31019;43.780;25.948;2024-01-25T02:45:22;83.95;;;77.95;;
45274;SDS011;31019;43.780;25.948;2024-01-25T02:47:49;83.63;;;76.88;;
45274;SDS011;31019;43.780;25.948;2024-01-25T02:50:16;85.25;;;78.85;;
45274;SDS011;31019;43.780;25.948;2024-01-25T02:52:43;89.50;;;82.90;;
45274;SDS011;31019;43.780;25.948;2024-01-25T02:55:10;80.50;;;74.60;;
45274;SDS011;31019;43.780;25.948;2024-01-25T02:57:38;97.75;;;90.97;;
45274;SDS011;31019;43.780;25.948;2024-01-25T03:00:08;80.85;;;74.90;;
45274;SDS011;31019;43.780;25.948;2024-01-25T03:02:38;88.35;;;81.75;;
45274;SDS011;31019;43.780;25.948;2024-01-25T03:05:05;97.95;;;90.97;;
45274;SDS011;31019;43.780;25.948;2024-01-25T03:07:33;98.25;;;91.32;;
45274;SDS011;31019;43.780;25.948;2024-01-25T03:10:00;94.20;;;87.72;;
45274;SDS011;31019;43.780;25.948;2024-01-25T03:12:27;91.63;;;85.28;;
45274;SDS011;31019;43.780;25.948;2024-01-25T03:14:55;81.05;;;75.45;;
45274;SDS011;31019;43.780;25.948;2024-01-25T03:17:22;83.78;;;77.90;;
45274;SDS011;31019;43.780;25.948;2024-01-25T03:19:49;80.10;;;74.40;;
45274;SDS011;31019;43.780;25.948;2024-01-25T03:22:15;101.97;;;94.30;;
45274;SDS011;31019;43.780;25.948;2024-01-25T03:24:42;99.00;;;91.80;;
45274;SDS011;31019;43.780;25.948;2024-01-25T03:27:09;91.15;;;84.43;;
45274;SDS011;31019;43.780;25.948;2024-01-25T03:29:40;105.53;;;98.43;;
45274;SDS011;31019;43.780;25.948;2024-01-25T03:32:09;93.22;;;86.72;;
45274;SDS011;31019;43.780;25.948;2024-01-25T03:34:36;96.70;;;89.90;;
45274;SDS011;31019;43.780;25.948;2024-01-25T03:37:03;98.63;;;91.45;;
45274;SDS011;31019;43.780;25.948;2024-01-25T03:39:30;104.13;;;96.55;;
45274;SDS011;31019;43.780;25.948;2024-01-25T03:41:57;104.75;;;97.28;;
45274;SDS011;31019;43.780;25.948;2024-01-25T03:44:24;103.28;;;95.75;;
45274;SDS011;31019;43.780;25.948;2024-01-25T03:46:51;96.68;;;89.68;;
45274;SDS011;31019;43.780;25.948;2024-01-25T03:49:19;109.53;;;101.47;;
45274;SDS011;31019;43.780;25.948;2024-01-25T03:51:48;123.50;;;114.78;;
45274;SDS011;31019;43.780;25.948;2024-01-25T03:54:16;143.25;;;133.07;;
45274;SDS011;31019;43.780;25.948;2024-01-25T03:56:43;128.73;;;119.72;;
45274;SDS011;31019;43.780;25.948;2024-01-25T03:59:10;131.10;;;121.70;;
45274;SDS011;31019;43.780;25.948;2024-01-25T04:01:42;124.22;;;115.22;;
45274;SDS011;31019;43.780;25.948;2024-01-25T04:04:09;131.57;;;122.00;;
45274;SDS011;31019;43.780;25.948;2024-01-25T04:06:40;128.77;;;119.38;;
45274;SDS011;31019;43.780;25.948;2024-01-25T04:09:07;139.43;;;129.20;;
45274;SDS011;31019;43.780;25.948;2024-01-25T04:11:34;132.40;;;122.43;;
45274;SDS011;31019;43.780;25.948;2024-01-25T04:14:01;135.48;;;125.45;;
45274;SDS011;31019;43.780;25.948;2024-01-25T04:16:28;138.55;;;128.38;;
45274;SDS011;31019;43.780;25.948;2024-01-25T04:18:55;125.60;;;116.38;;
45274;SDS011;31019;43.780;25.948;2024-01-25T04:21:21;117.07;;;108.40;;
45274;SDS011;31019;43.780;25.948;2024-01-25T04:23:50;120.25;;;111.40;;
45274;SDS011;31019;43.780;25.948;2024-01-25T04:26:17;130.85;;;121.28;;
45274;SDS011;31019;43.780;25.948;2024-01-25T04:28:44;129.80;;;120.47;;
45274;SDS011;31019;43.780;25.948;2024-01-25T04:31:10;126.53;;;116.75;;
45274;SDS011;31019;43.780;25.948;2024-01-25T04:33:37;137.20;;;126.88;;
45274;SDS011;31019;43.780;25.948;2024-01-25T04:36:05;128.15;;;118.32;;
45274;SDS011;31019;43.780;25.948;2024-01-25T04:38:32;122.68;;;113.05;;
45274;SDS011;31019;43.780;25.948;2024-01-25T04:41:01;135.02;;;125.03;;
45274;SDS011;31019;43.780;25.948;2024-01-25T04:43:27;124.90;;;115.25;;
45274;SDS011;31019;43.780;25.948;2024-01-25T04:45:54;122.43;;;113.05;;
45274;SDS011;31019;43.780;25.948;2024-01-25T04:48:21;132.27;;;122.22;;
45274;SDS011;31019;43.780;25.948;2024-01-25T04:50:48;140.25;;;129.43;;
45274;SDS011;31019;43.780;25.948;2024-01-25T04:53:15;136.63;;;126.28;;
45274;SDS011;31019;43.780;25.948;2024-01-25T04:55:42;147.00;;;135.88;;
45274;SDS011;31019;43.780;25.948;2024-01-25T04:58:10;160.50;;;147.95;;
45274;SDS011;31019;43.780;25.948;2024-01-25T05:00:37;156.43;;;143.82;;
45274;SDS011;31019;43.780;25.948;2024-01-25T05:03:05;166.82;;;153.23;;
45274;SDS011;31019;43.780;25.948;2024-01-25T05:05:32;179.07;;;164.68;;
45274;SDS011;31019;43.780;25.948;2024-01-25T05:07:58;188.25;;;173.52;;
45274;SDS011;31019;43.780;25.948;2024-01-25T05:10:25;190.00;;;175.32;;
45274;SDS011;31019;43.780;25.948;2024-01-25T05:12:52;162.95;;;149.68;;
45274;SDS011;31019;43.780;25.948;2024-01-25T05:15:21;173.93;;;160.02;;
45274;SDS011;31019;43.780;25.948;2024-01-25T05:17:47;185.48;;;170.77;;
45274;SDS011;31019;43.780;25.948;2024-01-25T05:20:14;200.55;;;185.65;;
45274;SDS011;31019;43.780;25.948;2024-01-25T05:22:43;190.50;;;175.95;;
45274;SDS011;31019;43.780;25.948;2024-01-25T05:25:11;173.38;;;159.45;;
45274;SDS011;31019;43.780;25.948;2024-01-25T05:27:38;194.70;;;179.10;;
45274;SDS011;31019;43.780;25.948;2024-01-25T05:30:05;207.90;;;192.05;;
45274;SDS011;31019;43.780;25.948;2024-01-25T05:32:36;204.13;;;188.32;;
45274;SDS011;31019;43.780;25.948;2024-01-25T05:35:03;200.05;;;184.50;;
45274;SDS011;31019;43.780;25.948;2024-01-25T05:37:30;188.93;;;173.98;;
45274;SDS011;31019;43.780;25.948;2024-01-25T05:39:57;177.82;;;163.43;;
45274;SDS011;31019;43.780;25.948;2024-01-25T05:42:24;175.73;;;161.60;;
45274;SDS011;31019;43.780;25.948;2024-01-25T05:44:51;186.02;;;171.55;;
45274;SDS011;31019;43.780;25.948;2024-01-25T05:47:18;191.35;;;176.05;;
45274;SDS011;31019;43.780;25.948;2024-01-25T05:49:47;175.48;;;160.88;;
45274;SDS011;31019;43.780;25.948;2024-01-25T05:52:13;178.38;;;163.88;;
45274;SDS011;31019;43.780;25.948;2024-01-25T05:54:41;176.48;;;161.57;;
45274;SDS011;31019;43.780;25.948;2024-01-25T05:57:08;189.13;;;172.85;;
45274;SDS011;31019;43.780;25.948;2024-01-25T05:59:35;191.52;;;175.57;;
45274;SDS011;31019;43.780;25.948;2024-01-25T06:02:03;193.50;;;177.90;;
45274;SDS011;31019;43.780;25.948;2024-01-25T06:04:30;205.05;;;188.70;;
45274;SDS011;31019;43.780;25.948;2024-01-25T06:06:58;199.20;;;182.82;;
45274;SDS011;31019;43.780;25.948;2024-01-25T06:09:26;189.45;;;173.40;;
45274;SDS011;31019;43.780;25.948;2024-01-25T06:11:53;207.30;;;190.30;;
45274;SDS011;31019;43.780;25.948;2024-01-25T06:14:19;196.30;;;180.38;;
45274;SDS011;31019;43.780;25.948;2024-01-25T06:16:46;206.70;;;189.38;;
45274;SDS011;31019;43.780;25.948;2024-01-25T06:19:13;200.38;;;183.23;;
45274;SDS011;31019;43.780;25.948;2024-01-25T06:21:40;217.10;;;199.77;;
45274;SDS011;31019;43.780;25.948;2024-01-25T06:24:08;187.38;;;171.57;;
45274;SDS011;31019;43.780;25.948;2024-01-25T06:26:35;208.75;;;191.95;;
45274;SDS011;31019;43.780;25.948;2024-01-25T06:29:02;199.43;;;182.98;;
45274;SDS011;31019;43.780;25.948;2024-01-25T06:31:29;199.30;;;183.30;;
45274;SDS011;31019;43.780;25.948;2024-01-25T06:33:56;188.23;;;172.32;;
45274;SDS011;31019;43.780;25.948;2024-01-25T06:36:23;221.45;;;204.00;;
45274;SDS011;31019;43.780;25.948;2024-01-25T06:38:50;242.05;;;223.20;;
45274;SDS011;31019;43.780;25.948;2024-01-25T06:41:18;235.48;;;216.20;;
45274;SDS011;31019;43.780;25.948;2024-01-25T06:43:45;257.02;;;237.05;;
45274;SDS011;31019;43.780;25.948;2024-01-25T06:46:14;231.70;;;213.32;;
45274;SDS011;31019;43.780;25.948;2024-01-25T06:48:41;260.67;;;240.10;;
45274;SDS011;31019;43.780;25.948;2024-01-25T06:51:08;264.55;;;242.82;;
45274;SDS011;31019;43.780;25.948;2024-01-25T06:53:34;285.02;;;261.58;;
45274;SDS011;31019;43.780;25.948;2024-01-25T06:56:01;266.42;;;245.05;;
45274;SDS011;31019;43.780;25.948;2024-01-25T06:58:29;266.77;;;244.60;;
45274;SDS011;31019;43.780;25.948;2024-01-25T07:00:56;266.48;;;244.30;;
45274;SDS011;31019;43.780;25.948;2024-01-25T07:03:23;279.13;;;256.33;;
45274;SDS011;31019;43.780;25.948;2024-01-25T07:05:50;290.83;;;267.23;;
45274;SDS011;31019;43.780;25.948;2024-01-25T07:08:17;300.15;;;275.65;;
45274;SDS011;31019;43.780;25.948;2024-01-25T07:10:44;290.40;;;266.40;;
45274;SDS011;31019;43.780;25.948;2024-01-25T07:13:11;298.23;;;273.83;;
45274;SDS011;31019;43.780;25.948;2024-01-25T07:15:39;295.88;;;270.50;;
45274;SDS011;31019;43.780;25.948;2024-01-25T07:18:06;310.02;;;284.55;;
45274;SDS011;31019;43.780;25.948;2024-01-25T07:20:33;303.63;;;278.48;;
45274;SDS011;31019;43.780;25.948;2024-01-25T07:23:00;304.42;;;280.05;;
45274;SDS011;31019;43.780;25.948;2024-01-25T07:25:27;300.70;;;276.90;;
45274;SDS011;31019;43.780;25.948;2024-01-25T07:27:54;288.75;;;266.10;;
45274;SDS011;31019;43.780;25.948;2024-01-25T07:30:21;268.30;;;246.35;;
45274;SDS011;31019;43.780;25.948;2024-01-25T07:32:49;255.68;;;235.52;;
45274;SDS011;31019;43.780;25.948;2024-01-25T07:35:16;250.02;;;230.80;;
45274;SDS011;31019;43.780;25.948;2024-01-25T07:37:43;241.55;;;222.75;;
45274;SDS011;31019;43.780;25.948;2024-01-25T07:40:10;237.65;;;218.98;;
45274;SDS011;31019;43.780;25.948;2024-01-25T07:42:38;234.93;;;216.73;;
45274;SDS011;31019;43.780;25.948;2024-01-25T07:45:05;235.57;;;218.00;;
45274;SDS011;31019;43.780;25.948;2024-01-25T07:47:33;225.95;;;209.05;;
45274;SDS011;31019;43.780;25.948;2024-01-25T07:50:01;222.73;;;206.93;;
45274;SDS011;31019;43.780;25.948;2024-01-25T07:52:29;222.65;;;207.30;;
45274;SDS011;31019;43.780;25.948;2024-01-25T07:54:55;223.48;;;208.52;;
45274;SDS011;31019;43.780;25.948;2024-01-25T07:57:22;211.27;;;196.88;;
45274;SDS011;31019;43.780;25.948;2024-01-25T07:59:49;192.75;;;179.60;;
45274;SDS011;31019;43.780;25.948;2024-01-25T08:02:16;211.18;;;197.23;;
45274;SDS011;31019;43.780;25.948;2024-01-25T08:04:44;206.18;;;192.07;;
45274;SDS011;31019;43.780;25.948;2024-01-25T08:07:12;188.00;;;175.60;;
45274;SDS011;31019;43.780;25.948;2024-01-25T08:09:39;177.43;;;166.02;;
45274;SDS011;31019;43.780;25.948;2024-01-25T08:12:06;179.63;;;168.13;;
45274;SDS011;31019;43.780;25.948;2024-01-25T08:14:33;183.27;;;171.70;;
45274;SDS011;31019;43.780;25.948;2024-01-25T08:17:00;141.38;;;132.52;;
45274;SDS011;31019;43.780;25.948;2024-01-25T08:19:27;124.07;;;116.18;;
45274;SDS011;31019;43.780;25.948;2024-01-25T08:21:53;105.00;;;98.25;;
45274;SDS011;31019;43.780;25.948;2024-01-25T08:24:22;129.13;;;120.72;;
45274;SDS011;31019;43.780;25.948;2024-01-25T08:26:48;143.80;;;134.73;;
45274;SDS011;31019;43.780;25.948;2024-01-25T08:29:18;128.25;;;120.00;;
45274;SDS011;31019;43.780;25.948;2024-01-25T08:31:45;127.25;;;119.35;;
45274;SDS011;31019;43.780;25.948;2024-01-25T08:34:13;136.07;;;127.28;;
45274;SDS011;31019;43.780;25.948;2024-01-25T08:36:41;136.65;;;128.18;;
45274;SDS011;31019;43.780;25.948;2024-01-25T08:39:07;155.32;;;144.80;;
45274;SDS011;31019;43.780;25.948;2024-01-25T08:41:36;148.43;;;138.93;;
45274;SDS011;31019;43.780;25.948;2024-01-25T08:44:03;150.10;;;140.43;;
45274;SDS011;31019;43.780;25.948;2024-01-25T08:46:30;141.52;;;132.52;;
45274;SDS011;31019;43.780;25.948;2024-01-25T08:48:56;150.70;;;140.80;;
45274;SDS011;31019;43.780;25.948;2024-01-25T08:51:23;142.10;;;132.20;;
45274;SDS011;31019;43.780;25.948;2024-01-25T08:53:50;158.35;;;148.07;;
45274;SDS011;31019;43.780;25.948;2024-01-25T08:56:17;135.32;;;126.07;;
45274;SDS011;31019;43.780;25.948;2024-01-25T08:58:47;160.23;;;149.65;;
45274;SDS011;31019;43.780;25.948;2024-01-25T09:01:15;163.32;;;152.50;;
45274;SDS011;31019;43.780;25.948;2024-01-25T09:03:42;153.63;;;143.65;;
45274;SDS011;31019;43.780;25.948;2024-01-25T09:06:09;142.77;;;133.50;;
45274;SDS011;31019;43.780;25.948;2024-01-25T09:08:36;143.68;;;134.32;;
45274;SDS011;31019;43.780;25.948;2024-01-25T09:11:03;129.57;;;121.57;;
45274;SDS011;31019;43.780;25.948;2024-01-25T09:13:30;141.70;;;132.48;;
45274;SDS011;31019;43.780;25.948;2024-01-25T09:15:58;137.35;;;128.98;;
45274;SDS011;31019;43.780;25.948;2024-01-25T09:18:25;150.30;;;140.85;;
45274;SDS011;31019;43.780;25.948;2024-01-25T09:20:52;164.45;;;154.35;;
45274;SDS011;31019;43.780;25.948;2024-01-25T09:23:19;150.07;;;140.70;;
45274;SDS011;31019;43.780;25.948;2024-01-25T09:25:46;137.57;;;129.07;;
45274;SDS011;31019;43.780;25.948;2024-01-25T09:28:13;143.60;;;134.27;;
45274;SDS011;31019;43.780;25.948;2024-01-25T09:30:40;152.90;;;143.13;;
45274;SDS011;31019;43.780;25.948;2024-01-25T09:33:08;151.82;;;142.52;;
45274;SDS011;31019;43.780;25.948;2024-01-25T09:35:35;159.25;;;149.30;;
45274;SDS011;31019;43.780;25.948;2024-01-25T09:38:02;161.35;;;150.95;;
45274;SDS011;31019;43.780;25.948;2024-01-25T09:40:29;141.68;;;132.68;;
45274;SDS011;31019;43.780;25.948;2024-01-25T09:42:56;145.77;;;136.52;;
45274;SDS011;31019;43.780;25.948;2024-01-25T09:45:23;121.63;;;113.90;;
45274;SDS011;31019;43.780;25.948;2024-01-25T09:47:50;98.30;;;92.10;;
45274;SDS011;31019;43.780;25.948;2024-01-25T09:50:19;101.90;;;95.50;;
45274;SDS011;31019;43.780;25.948;2024-01-25T09:52:47;133.32;;;125.20;;
45274;SDS011;31019;43.780;25.948;2024-01-25T09:55:20;111.78;;;104.75;;
45274;SDS011;31019;43.780;25.948;2024-01-25T09:57:52;116.38;;;109.10;;
45274;SDS011;31019;43.780;25.948;2024-01-25T10:00:20;108.85;;;102.15;;
45274;SDS011;31019;43.780;25.948;2024-01-25T10:02:47;88.13;;;82.70;;
45274;SDS011;31019;43.780;25.948;2024-01-25T10:05:17;124.78;;;117.28;;
45274;SDS011;31019;43.780;25.948;2024-01-25T10:07:45;124.78;;;117.47;;
45274;SDS011;31019;43.780;25.948;2024-01-25T10:10:13;128.82;;;121.32;;
45274;SDS011;31019;43.780;25.948;2024-01-25T10:12:40;108.47;;;102.18;;
45274;SDS011;31019;43.780;25.948;2024-01-25T10:15:08;131.85;;;123.63;;
45274;SDS011;31019;43.780;25.948;2024-01-25T10:17:35;89.25;;;83.95;;
45274;SDS011;31019;43.780;25.948;2024-01-25T10:20:04;109.25;;;102.72;;
45274;SDS011;31019;43.780;25.948;2024-01-25T10:22:34;81.97;;;76.97;;
45274;SDS011;31019;43.780;25.948;2024-01-25T10:25:01;117.40;;;110.60;;
45274;SDS011;31019;43.780;25.948;2024-01-25T10:27:28;105.53;;;99.13;;
45274;SDS011;31019;43.780;25.948;2024-01-25T10:29:55;111.80;;;105.05;;
45274;SDS011;31019;43.780;25.948;2024-01-25T10:32:22;73.78;;;69.32;;
45274;SDS011;31019;43.780;25.948;2024-01-25T10:34:49;105.28;;;98.97;;
45274;SDS011;31019;43.780;25.948;2024-01-25T10:37:17;125.45;;;117.93;;
45274;SDS011;31019;43.780;25.948;2024-01-25T10:39:48;108.63;;;102.03;;
45274;SDS011;31019;43.780;25.948;2024-01-25T10:42:15;113.45;;;106.60;;
45274;SDS011;31019;43.780;25.948;2024-01-25T10:44:42;102.32;;;95.97;;
45274;SDS011;31019;43.780;25.948;2024-01-25T10:47:10;112.72;;;105.75;;
45274;SDS011;31019;43.780;25.948;2024-01-25T10:49:38;99.15;;;92.95;;
45274;SDS011;31019;43.780;25.948;2024-01-25T10:52:05;99.30;;;93.13;;
45274;SDS011;31019;43.780;25.948;2024-01-25T10:54:32;91.68;;;85.88;;
45274;SDS011;31019;43.780;25.948;2024-01-25T10:57:02;79.07;;;73.97;;
45274;SDS011;31019;43.780;25.948;2024-01-25T10:59:32;74.63;;;69.82;;
45274;SDS011;31019;43.780;25.948;2024-01-25T11:02:00;51.67;;;48.20;;
45274;SDS011;31019;43.780;25.948;2024-01-25T11:04:27;73.22;;;68.63;;
45274;SDS011;31019;43.780;25.948;2024-01-25T11:07:03;100.20;;;94.00;;
45274;SDS011;31019;43.780;25.948;2024-01-25T11:09:32;90.68;;;85.20;;
45274;SDS011;31019;43.780;25.948;2024-01-25T11:12:10;92.00;;;86.40;;
45274;SDS011;31019;43.780;25.948;2024-01-25T11:14:38;94.00;;;88.18;;
45274;SDS011;31019;43.780;25.948;2024-01-25T11:17:14;113.20;;;106.28;;
45274;SDS011;31019;43.780;25.948;2024-01-25T11:19:43;105.25;;;99.05;;
45274;SDS011;31019;43.780;25.948;2024-01-25T11:22:10;114.68;;;107.90;;
45274;SDS011;31019;43.780;25.948;2024-01-25T11:24:38;94.03;;;88.35;;
45274;SDS011;31019;43.780;25.948;2024-01-25T11:27:06;120.55;;;113.30;;
45274;SDS011;31019;43.780;25.948;2024-01-25T11:29:35;87.65;;;82.32;;
45274;SDS011;31019;43.780;25.948;2024-01-25T11:32:01;118.10;;;110.75;;
45274;SDS011;31019;43.780;25.948;2024-01-25T11:34:30;103.15;;;96.85;;
45274;SDS011;31019;43.780;25.948;2024-01-25T11:36:57;110.43;;;103.75;;
45274;SDS011;31019;43.780;25.948;2024-01-25T11:39:24;107.18;;;100.28;;
45274;SDS011;31019;43.780;25.948;2024-01-25T11:41:51;107.88;;;101.47;;
45274;SDS011;31019;43.780;25.948;2024-01-25T11:44:20;102.85;;;96.90;;
45274;SDS011;31019;43.780;25.948;2024-01-25T11:46:49;89.65;;;84.55;;
45274;SDS011;31019;43.780;25.948;2024-01-25T11:49:16;109.05;;;102.15;;
45274;SDS011;31019;43.780;25.948;2024-01-25T11:51:44;91.82;;;85.97;;
45274;SDS011;31019;43.780;25.948;2024-01-25T11:54:11;100.88;;;94.60;;
45274;SDS011;31019;43.780;25.948;2024-01-25T11:56:38;129.18;;;120.88;;
45274;SDS011;31019;43.780;25.948;2024-01-25T11:59:07;93.35;;;87.47;;
45274;SDS011;31019;43.780;25.948;2024-01-25T12:01:36;111.45;;;104.35;;
45274;SDS011;31019;43.780;25.948;2024-01-25T12:04:04;83.15;;;77.65;;
45274;SDS011;31019;43.780;25.948;2024-01-25T12:06:32;131.88;;;123.45;;
45274;SDS011;31019;43.780;25.948;2024-01-25T12:09:05;136.40;;;127.50;;
45274;SDS011;31019;43.780;25.948;2024-01-25T12:11:34;86.97;;;81.18;;
45274;SDS011;31019;43.780;25.948;2024-01-25T12:14:01;100.00;;;93.68;;
45274;SDS011;31019;43.780;25.948;2024-01-25T12:16:28;113.25;;;106.05;;
45274;SDS011;31019;43.780;25.948;2024-01-25T12:18:56;68.68;;;64.28;;
45274;SDS011;31019;43.780;25.948;2024-01-25T12:21:24;82.63;;;77.43;;
45274;SDS011;31019;43.780;25.948;2024-01-25T12:23:51;113.35;;;106.03;;
45274;SDS011;31019;43.780;25.948;2024-01-25T12:26:18;91.40;;;85.53;;
45274;SDS011;31019;43.780;25.948;2024-01-25T12:28:45;130.07;;;121.97;;
45274;SDS011;31019;43.780;25.948;2024-01-25T12:31:14;96.10;;;90.15;;
45274;SDS011;31019;43.780;25.948;2024-01-25T12:33:41;89.00;;;83.50;;
45274;SDS011;31019;43.780;25.948;2024-01-25T12:36:09;105.43;;;98.72;;
45274;SDS011;31019;43.780;25.948;2024-01-25T12:38:36;114.65;;;107.35;;
45274;SDS011;31019;43.780;25.948;2024-01-25T12:41:03;98.53;;;92.25;;
45274;SDS011;31019;43.780;25.948;2024-01-25T12:43:30;80.53;;;75.53;;
45274;SDS011;31019;43.780;25.948;2024-01-25T12:45:57;73.20;;;68.70;;
45274;SDS011;31019;43.780;25.948;2024-01-25T12:48:24;106.13;;;99.72;;
45274;SDS011;31019;43.780;25.948;2024-01-25T12:50:51;83.47;;;77.88;;
45274;SDS011;31019;43.780;25.948;2024-01-25T12:53:19;88.90;;;83.30;;
45274;SDS011;31019;43.780;25.948;2024-01-25T12:55:46;67.93;;;63.15;;
45274;SDS011;31019;43.780;25.948;2024-01-25T12:58:13;76.25;;;71.57;;
45274;SDS011;31019;43.780;25.948;2024-01-25T13:00:40;66.68;;;62.53;;
45274;SDS011;31019;43.780;25.948;2024-01-25T13:03:08;55.28;;;51.67;;
45274;SDS011;31019;43.780;25.948;2024-01-25T13:05:35;81.35;;;76.20;;
45274;SDS011;31019;43.780;25.948;2024-01-25T13:08:04;74.28;;;69.75;;
45274;SDS011;31019;43.780;25.948;2024-01-25T13:10:33;78.88;;;74.28;;
45274;SDS011;31019;43.780;25.948;2024-01-25T13:13:00;68.13;;;63.97;;
45274;SDS011;31019;43.780;25.948;2024-01-25T13:15:27;54.17;;;50.45;;
45274;SDS011;31019;43.780;25.948;2024-01-25T13:17:54;47.65;;;44.75;;
45274;SDS011;31019;43.780;25.948;2024-01-25T13:20:21;40.30;;;37.70;;
45274;SDS011;31019;43.780;25.948;2024-01-25T13:22:47;44.38;;;41.50;;
45274;SDS011;31019;43.780;25.948;2024-01-25T13:25:14;41.92;;;39.22;;
45274;SDS011;31019;43.780;25.948;2024-01-25T13:27:42;43.67;;;40.97;;
45274;SDS011;31019;43.780;25.948;2024-01-25T13:30:09;45.60;;;42.83;;
45274;SDS011;31019;43.780;25.948;2024-01-25T13:32:38;46.90;;;43.92;;
45274;SDS011;31019;43.780;25.948;2024-01-25T13:35:05;38.53;;;36.15;;
45274;SDS011;31019;43.780;25.948;2024-01-25T13:37:33;40.40;;;37.88;;
45274;SDS011;31019;43.780;25.948;2024-01-25T13:39:59;41.25;;;38.55;;
45274;SDS011;31019;43.780;25.948;2024-01-25T13:42:26;42.42;;;39.80;;
45274;SDS011;31019;43.780;25.948;2024-01-25T13:44:55;41.00;;;38.47;;
45274;SDS011;31019;43.780;25.948;2024-01-25T13:47:22;46.05;;;43.25;;
45274;SDS011;31019;43.780;25.948;2024-01-25T13:49:49;46.65;;;43.30;;
45274;SDS011;31019;43.780;25.948;2024-01-25T13:52:16;46.38;;;43.38;;